Time;durP1;ratioP1;P1;durP2;ratioP2;P2;SDS_P1;SDS_P2;PMS_P1;PMS_P2;Temp;Humidity;BMP_temperature;BMP_pressure;BME280_temperature;BME280_humidity;BME280_pressure;Samples;Min_cycle;Max_cycle;Signal;HPM_P1;HPM_P2
2022/08/19 00:01:58;;;;;;;15.27;10.88;;;21.60;99.90;;;22.12;76.91;101250.31;4825755;29;20141;-70
2022/08/19 00:04:32;;;;;;;13.00;10.70;;;21.70;99.90;;;22.22;76.45;101246.25;4826830;29;20466;-71
2022/08/19 00:07:03;;;;;;;17.15;11.98;;;21.80;99.90;;;22.26;76.55;101250.53;4827022;29;20688;-71
2022/08/19 00:09:32;;;;;;;17.10;11.07;;;21.80;99.90;;;22.29;77.23;101244.16;4826701;29;20568;-71
2022/08/19 00:12:01;;;;;;;14.30;11.32;;;21.80;99.90;;;22.29;77.05;101242.34;4826720;29;20410;-71
2022/08/19 00:14:31;;;;;;;12.27;10.70;;;21.80;99.90;;;22.29;76.84;101242.34;4826865;29;20125;-71
2022/08/19 00:17:02;;;;;;;14.95;11.00;;;21.90;99.90;;;22.32;76.23;101246.69;4826637;29;20046;-71
2022/08/19 00:19:32;;;;;;;13.70;10.57;;;21.90;99.90;;;22.24;76.04;101238.09;4826647;29;20054;-71
2022/08/19 00:22:02;;;;;;;13.48;11.55;;;21.90;99.90;;;22.06;77.17;101247.91;4826905;29;20058;-71
2022/08/19 00:24:30;;;;;;;10.65;8.98;;;21.70;99.90;;;22.00;77.59;101233.81;4826034;29;20058;-71
2022/08/19 00:27:01;;;;;;;8.40;7.43;;;21.60;99.90;;;22.13;77.75;101252.06;4826084;29;20047;-70
2022/08/19 00:29:50;;;;;;;8.32;6.90;;;21.70;99.90;;;22.10;77.93;101254.91;4826079;29;20107;-71
2022/08/19 00:32:20;;;;;;;9.60;8.70;;;21.70;99.90;;;22.09;78.11;101253.16;4825788;29;20065;-70
2022/08/19 00:34:51;;;;;;;16.67;12.70;;;21.70;99.90;;;22.16;77.97;101257.28;4825687;29;20378;-71
2022/08/19 00:37:23;;;;;;;10.90;9.85;;;21.70;99.90;;;22.07;77.04;101232.59;4826266;29;20054;-70
2022/08/19 00:39:51;;;;;;;14.15;12.70;;;21.80;99.90;;;22.20;76.90;101263.44;4825495;29;20180;-71
2022/08/19 00:42:22;;;;;;;15.55;13.05;;;21.80;99.90;;;22.19;76.75;101254.47;4825533;29;20054;-70
2022/08/19 00:44:53;;;;;;;17.90;14.48;;;21.90;99.90;;;22.25;76.98;101256.91;4825566;29;20050;-71
2022/08/19 00:47:21;;;;;;;16.15;13.68;;;21.90;99.90;;;22.34;77.00;101247.50;4825773;29;20053;-71
2022/08/19 00:49:55;;;;;;;19.65;13.68;;;22.00;99.90;;;22.38;77.17;101249.97;4825496;29;20055;-71
2022/08/19 00:52:29;;;;;;;17.00;13.48;;;22.00;99.90;;;22.48;77.36;101254.94;4825056;29;20051;-71
2022/08/19 00:54:59;;;;;;;15.43;13.73;;;22.00;99.90;;;22.57;77.12;101249.16;4825411;29;20497;-71
2022/08/19 00:57:35;;;;;;;15.63;13.77;;;22.10;99.90;;;22.49;76.94;101229.72;4824368;29;20066;-71
2022/08/19 01:00:11;;;;;;;21.20;14.13;;;22.20;99.90;;;22.62;76.92;101255.19;4825316;29;20062;-71
2022/08/19 01:02:42;;;;;;;14.73;13.13;;;22.20;99.90;;;22.58;76.54;101250.88;4824207;29;20137;-71
2022/08/19 01:05:20;;;;;;;10.88;8.88;;;22.30;99.90;;;22.42;75.68;101256.97;4825317;29;20462;-71
2022/08/19 01:07:50;;;;;;;10.20;9.07;;;22.10;99.90;;;22.00;76.00;101256.28;4825304;29;20047;-71
2022/08/19 01:10:26;;;;;;;9.60;8.70;;;21.70;99.90;;;21.65;76.64;101267.69;4825386;29;20126;-70
2022/08/19 01:12:56;;;;;;;11.85;10.50;;;21.30;99.90;;;21.17;78.88;101257.22;4825237;29;20566;-71
2022/08/19 01:15:31;;;;;;;14.05;12.65;;;20.60;99.90;;;20.55;80.58;101154.00;4825187;29;20416;-71
2022/08/19 01:18:06;;;;;;;18.25;13.40;;;20.60;99.90;;;21.30;81.30;101265.63;4823845;29;20054;-71
2022/08/19 01:20:36;;;;;;;15.50;13.82;;;20.70;99.90;;;21.38;81.49;101266.19;4825093;29;20050;-71
2022/08/19 01:23:06;;;;;;;15.10;13.50;;;20.80;99.90;;;21.43;81.60;101272.22;4825192;29;20496;-71
2022/08/19 01:25:45;;;;;;;19.58;12.90;;;20.90;99.90;;;21.49;81.41;101270.16;4823939;29;20459;-70
2022/08/19 01:28:23;;;;;;;17.42;13.80;;;21.00;99.90;;;21.52;81.47;101259.25;4825041;29;20454;-71
2022/08/19 01:31:01;;;;;;;18.50;16.45;;;21.10;99.90;;;21.49;81.96;101239.69;4823958;29;20509;-71
2022/08/19 01:33:35;;;;;;;22.80;18.00;;;21.20;99.90;;;21.65;81.98;101254.22;4824921;29;20447;-71
2022/08/19 01:36:10;;;;;;;25.35;21.52;;;21.20;99.90;;;21.72;82.07;101250.31;4824824;29;20050;-71
2022/08/19 01:38:46;;;;;;;27.08;22.88;;;21.30;99.90;;;21.68;82.04;101226.28;4824962;29;20054;-70
2022/08/19 01:41:14;;;;;;;31.45;23.02;;;21.40;99.90;;;21.82;81.68;101259.78;4824827;29;20084;-70
2022/08/19 01:43:43;;;;;;;23.73;20.77;;;21.40;99.90;;;21.86;81.07;101265.91;4824933;29;20054;-71
2022/08/19 01:46:32;;;;;;;20.50;18.30;;;21.50;99.90;;;21.76;80.26;101265.41;4825332;29;20500;-71
2022/08/19 01:49:03;;;;;;;19.52;17.48;;;21.40;99.90;;;21.54;80.37;101278.06;4823899;29;20050;-71
2022/08/19 01:51:32;;;;;;;25.02;22.33;;;21.20;99.90;;;21.55;81.40;101264.53;4824802;29;20081;-71
2022/08/19 01:54:13;;;;;;;29.10;24.70;;;21.10;99.90;;;21.53;82.36;101271.78;4824592;29;20529;-71
2022/08/19 01:56:51;;;;;;;35.25;30.23;;;21.10;99.90;;;21.46;82.90;101239.81;4825380;29;20079;-71
2022/08/19 01:59:23;;;;;;;40.75;32.28;;;21.10;99.90;;;21.54;83.14;101233.13;4823466;29;20053;-71
2022/08/19 02:01:51;;;;;;;37.80;30.55;;;21.20;99.90;;;21.69;83.06;101245.06;4824368;29;20070;-71
2022/08/19 02:04:23;;;;;;;38.03;31.35;;;21.30;99.90;;;21.80;83.23;101256.28;4823752;29;20094;-71
2022/08/19 02:06:51;;;;;;;43.78;33.30;;;21.40;99.90;;;21.60;82.91;101202.41;4824569;29;20077;-71
2022/08/19 02:09:21;;;;;;;45.25;34.30;;;21.40;99.90;;;21.94;82.83;101250.28;4824504;29;20061;-71
2022/08/19 02:11:49;;;;;;;42.30;34.37;;;21.50;99.90;;;22.01;82.59;101249.91;4824654;29;20416;-70
2022/08/19 02:14:18;;;;;;;40.42;33.28;;;21.60;99.90;;;22.04;82.35;101259.69;4824274;29;20107;-72
2022/08/19 02:16:46;;;;;;;40.10;31.85;;;21.60;99.90;;;22.07;81.98;101260.44;4824445;29;20050;-71
2022/08/19 02:19:14;;;;;;;41.95;32.47;;;21.70;99.90;;;22.10;81.48;101271.09;4824225;29;20146;-71
2022/08/19 02:21:43;;;;;;;42.42;33.70;;;21.70;99.90;;;22.12;81.32;101265.63;4824150;29;20462;-71
2022/08/19 02:24:12;;;;;;;41.15;33.50;;;21.80;99.90;;;22.12;81.52;101253.03;4824459;29;20049;-71
2022/08/19 02:26:41;;;;;;;45.08;34.10;;;21.70;99.90;;;22.16;80.96;101251.91;4824702;29;20413;-71
2022/08/19 02:29:10;;;;;;;;;;;21.80;99.90;;;22.15;80.94;101252.88;4824860;29;20043;-71
2022/08/19 02:31:39;;;;;;;39.90;34.53;;;21.80;99.90;;;22.12;80.83;101258.41;4824172;29;20298;-71
2022/08/19 02:34:07;;;;;;;43.45;34.38;;;21.80;99.90;;;22.09;80.77;101253.16;4824067;29;20046;-71
2022/08/19 02:36:35;;;;;;;40.40;33.08;;;21.70;99.90;;;21.90;80.95;101238.75;4824005;29;20041;-71
2022/08/19 02:39:10;;;;;;;42.80;35.47;;;21.60;99.90;;;21.91;81.66;101243.19;4824091;29;20058;-71
2022/08/19 02:41:38;;;;;;;53.13;38.75;;;21.50;99.90;;;21.91;82.21;101256.66;4823893;29;20042;-71
2022/08/19 02:44:08;;;;;;;46.70;37.38;;;21.50;99.90;;;21.91;82.41;101255.81;4822803;29;20463;-71
2022/08/19 02:46:57;;;;;;;45.40;37.50;;;21.50;99.90;;;21.91;82.54;101242.34;4823853;29;20520;-71
2022/08/19 02:49:25;;;;;;;49.60;38.38;;;21.50;99.90;;;21.94;82.77;101243.06;4823783;29;20050;-71
2022/08/19 02:51:55;;;;;;;48.22;38.83;;;21.50;99.90;;;21.99;82.66;101238.34;4823703;29;20050;-70
2022/08/19 02:54:25;;;;;;;46.25;36.65;;;21.60;99.90;;;22.07;82.29;101227.19;4824319;29;20055;-71
2022/08/19 02:56:56;;;;;;;57.08;37.70;;;21.60;99.90;;;22.07;82.05;101230.78;4823663;29;20054;-71
2022/08/19 02:59:26;;;;;;;50.55;37.53;;;21.60;99.90;;;22.07;81.90;101232.59;4823902;29;20054;-71
2022/08/19 03:01:54;;;;;;;48.67;38.38;;;21.70;99.90;;;22.09;81.85;101233.41;4823558;29;20217;-71
2022/08/19 03:04:24;;;;;;;48.33;37.47;;;21.60;99.90;;;22.08;81.79;101224.47;4823615;29;20516;-71
2022/08/19 03:06:53;;;;;;;47.85;36.92;;;21.70;99.90;;;22.07;81.83;101225.38;4823781;29;20054;-71
2022/08/19 03:09:30;;;;;;;54.00;38.53;;;21.70;99.90;;;22.09;81.57;101223.50;4823573;29;20456;-72
2022/08/19 03:11:58;;;;;;;46.60;35.05;;;21.70;99.90;;;22.14;81.37;101223.31;4823443;29;20035;-72
2022/08/19 03:14:31;;;;;;;49.17;36.30;;;21.70;99.90;;;22.13;81.25;101227.81;4824291;29;20084;-71
2022/08/19 03:17:00;;;;;;;46.85;36.05;;;21.80;99.90;;;22.14;81.06;101221.47;4826487;29;20077;-71
2022/08/19 03:19:29;;;;;;;47.60;35.28;;;21.70;99.90;;;22.15;80.93;101225.91;4826848;29;20058;-71
2022/08/19 03:21:57;;;;;;;51.17;36.42;;;21.80;99.90;;;22.15;81.01;101225.91;4826950;29;20248;-71
2022/08/19 03:24:26;;;;;;;46.13;35.10;;;21.70;99.90;;;22.16;81.11;101229.50;4826814;29;20137;-71
2022/08/19 03:26:57;;;;;;;44.88;34.05;;;21.70;99.90;;;22.00;81.11;101199.69;4825852;29;20105;-71
2022/08/19 03:29:27;;;;;;;47.17;35.38;;;21.70;99.90;;;22.13;81.35;101221.53;4827115;29;20441;-70
2022/08/19 03:32:01;;;;;;;48.58;35.78;;;21.70;99.90;;;22.10;81.25;101222.56;4826822;29;20054;-71
2022/08/19 03:34:35;;;;;;;52.67;37.78;;;21.70;99.90;;;22.11;81.38;101218.03;4825746;29;20065;-71
2022/08/19 03:37:06;;;;;;;50.25;37.58;;;21.70;99.90;;;22.09;81.68;101218.13;4826735;29;20111;-72
2022/08/19 03:39:38;;;;;;;54.38;39.00;;;21.70;99.90;;;22.08;81.72;101218.19;4826523;29;20094;-72
2022/08/19 03:42:07;;;;;;;52.22;38.95;;;21.70;99.90;;;21.95;82.02;101195.47;4826638;29;20054;-71
2022/08/19 03:44:55;;;;;;;59.13;40.55;;;21.70;99.90;;;22.01;82.14;101214.03;4826654;29;20433;-71
2022/08/19 03:47:25;;;;;;;54.40;38.15;;;21.60;99.90;;;22.08;82.06;101223.59;4825522;29;20450;-71
2022/08/19 03:49:53;;;;;;;50.75;37.75;;;21.60;99.90;;;22.23;81.62;101229.13;4827007;29;20458;-72
2022/08/19 03:52:21;;;;;;;54.80;39.80;;;21.70;99.90;;;22.26;81.41;101233.53;4826402;29;20545;-72
2022/08/19 03:54:50;;;;;;;57.55;41.35;;;21.80;99.90;;;22.13;80.97;101205.38;4826905;29;20122;-71
2022/08/19 03:57:18;;;;;;;60.13;43.55;;;21.80;99.90;;;22.15;80.53;101231.31;4826330;29;20051;-71
2022/08/19 03:59:46;;;;;;;64.20;45.72;;;21.80;99.90;;;22.13;80.44;101233.19;4826374;29;20051;-71
2022/08/19 04:02:15;;;;;;;69.18;47.88;;;21.70;99.90;;;22.08;80.38;101240.63;4826752;29;20500;-71
2022/08/19 04:04:45;;;;;;;69.68;46.45;;;21.60;99.90;;;22.04;80.32;101238.13;4826476;29;20089;-71
2022/08/19 04:07:16;;;;;;;68.63;46.67;;;21.60;99.90;;;22.00;80.84;101237.41;4826496;29;20564;-71
2022/08/19 04:09:45;;;;;;;66.72;46.88;;;21.60;99.90;;;22.04;81.22;101239.03;4826541;29;20054;-71
2022/08/19 04:12:14;;;;;;;67.75;46.35;;;21.50;99.90;;;21.82;81.80;101205.03;4825058;29;20417;-71
2022/08/19 04:14:42;;;;;;;71.32;46.83;;;21.60;99.90;;;22.07;81.97;101244.25;4826206;29;20054;-71
2022/08/19 04:17:13;;;;;;;69.03;46.80;;;21.60;99.90;;;22.13;82.04;101248.47;4826343;29;20133;-71
2022/08/19 04:19:44;;;;;;;67.63;47.08;;;21.60;99.90;;;22.07;82.22;101232.59;4826698;29;20080;-71
2022/08/19 04:22:12;;;;;;;67.35;46.72;;;21.70;99.90;;;22.16;82.22;101241.13;4826389;29;20125;-71
2022/08/19 04:24:40;;;;;;;65.53;44.35;;;21.70;99.90;;;22.16;82.78;101243.81;4825863;29;20525;-71
2022/08/19 04:27:09;;;;;;;65.20;45.38;;;21.70;99.90;;;22.19;82.88;101238.31;4824820;29;20129;-71
2022/08/19 04:29:39;;;;;;;66.43;44.33;;;21.70;99.90;;;22.18;82.96;101241.09;4825961;29;20129;-71
2022/08/19 04:32:08;;;;;;;66.18;44.42;;;21.70;99.90;;;22.21;83.08;101244.50;4826011;29;20097;-70
2022/08/19 04:34:38;;;;;;;71.05;46.42;;;21.80;99.90;;;22.24;83.12;101243.50;4826220;29;20050;-72
2022/08/19 04:37:33;;;;;;;62.95;43.25;;;21.80;99.90;;;22.24;83.24;101241.66;4826246;29;20065;-73
2022/08/19 04:42:53;;;;;;;71.00;43.50;;;21.80;99.90;;;22.29;83.51;101238.75;4826219;29;20050;-73
2022/08/19 04:45:22;;;;;;;66.88;43.33;;;21.80;99.90;;;22.30;83.31;101230.59;4826032;29;20051;-72
2022/08/19 04:47:50;;;;;;;64.15;40.90;;;21.90;99.90;;;22.31;83.82;101237.75;4825761;29;20052;-70
2022/08/19 04:50:27;;;;;;;61.65;40.30;;;21.90;99.90;;;22.37;83.87;101239.28;4825676;29;20429;-70
2022/08/19 04:52:57;;;;;;;64.45;41.45;;;21.90;99.90;;;22.36;83.88;101241.09;4825545;29;20074;-71
2022/08/19 04:55:26;;;;;;;61.00;40.57;;;21.90;99.90;;;22.35;83.94;101244.75;4825499;29;20054;-70
2022/08/19 04:57:55;;;;;;;63.17;41.88;;;21.90;99.90;;;22.35;83.97;101250.13;4825912;29;20698;-70
2022/08/19 05:00:24;;;;;;;60.22;38.20;;;21.90;99.90;;;22.36;84.25;101248.28;4825405;29;20414;-70
2022/08/19 05:02:52;;;;;;;59.92;39.60;;;21.90;99.90;;;22.37;84.32;101244.66;4825636;29;20075;-70
2022/08/19 05:05:21;;;;;;;64.57;39.90;;;21.90;99.90;;;22.37;84.25;101247.38;4825543;29;20054;-69
2022/08/19 05:07:49;;;;;;;57.60;38.85;;;21.90;99.90;;;22.33;84.40;101245.75;4824219;29;20141;-71
2022/08/19 05:10:20;;;;;;;56.70;38.58;;;21.90;99.90;;;22.35;84.36;101260.03;4825742;29;20050;-70
2022/08/19 05:12:48;;;;;;;;;;;21.90;99.90;;;22.30;84.87;101253.97;4825621;29;20573;-69
2022/08/19 05:15:19;;;;;;;54.53;38.20;;;21.90;99.90;;;22.31;84.94;101253.91;4825112;29;20239;-70
2022/08/19 05:23:16;;;;;;;56.67;37.85;;;21.90;99.90;;;22.28;85.46;101251.34;4824965;29;20047;-70
2022/08/19 05:25:52;;;;;;;57.03;37.13;;;21.80;99.90;;;22.30;85.58;101262.06;4824919;29;20047;-70
2022/08/19 05:28:21;;;;;;;60.85;37.47;;;21.90;99.90;;;22.32;85.92;101255.66;4824836;29;20061;-70
2022/08/19 05:30:50;;;;;;;56.80;39.53;;;21.90;99.90;;;22.26;86.03;101247.84;4824813;29;20430;-70
2022/08/19 05:33:19;;;;;;;60.08;38.72;;;21.80;99.90;;;22.33;85.92;101252.03;4824723;29;20054;-70
2022/08/19 05:35:49;;;;;;;53.97;36.20;;;21.90;99.90;;;22.34;85.93;101250.19;4824708;29;20058;-70
2022/08/19 05:38:19;;;;;;;55.60;36.80;;;21.90;99.90;;;22.28;86.04;101235.19;4824319;29;20059;-69
2022/08/19 05:40:49;;;;;;;50.07;34.77;;;21.90;99.90;;;22.34;86.09;101247.50;4824685;29;20073;-70
2022/08/19 05:43:18;;;;;;;54.35;35.35;;;21.90;99.90;;;22.38;86.04;101239.19;4824873;29;20322;-70
2022/08/19 05:45:47;;;;;;;58.05;37.13;;;21.90;99.90;;;22.40;86.19;101240.00;4825008;29;20065;-69
2022/08/19 05:48:17;;;;;;;56.05;37.33;;;22.00;99.90;;;22.37;86.14;101232.06;4824787;29;20130;-70
2022/08/19 05:50:46;;;;;;;59.35;36.67;;;21.90;99.90;;;22.42;86.35;101239.91;4824713;29;20638;-70
2022/08/19 05:53:16;;;;;;;59.88;37.78;;;22.00;99.90;;;22.46;86.49;101246.91;4824531;29;20128;-70
2022/08/19 05:55:44;;;;;;;53.00;36.78;;;22.00;99.90;;;22.39;86.33;101240.97;4824441;29;20497;-70
2022/08/19 05:58:13;;;;;;;52.20;36.20;;;22.00;99.90;;;22.45;86.62;101247.88;4824328;29;20054;-70
2022/08/19 06:00:45;;;;;;;54.38;36.88;;;22.00;99.90;;;22.47;86.58;101247.81;4824313;29;20112;-70
2022/08/19 06:03:13;;;;;;;57.88;35.85;;;22.00;99.90;;;22.49;86.73;101259.38;4824473;29;20051;-70
2022/08/19 06:05:42;;;;;;;58.33;36.75;;;22.10;99.90;;;22.49;86.72;101257.56;4824316;29;20386;-70
2022/08/19 06:08:20;;;;;;;56.45;35.83;;;22.10;99.90;;;22.47;86.98;101256.78;4824086;29;20061;-70
2022/08/19 06:11:20;;;;;;;51.97;34.45;;;22.10;99.90;;;22.45;87.32;101256.81;4824124;29;20048;-69
2022/08/19 06:13:52;;;;;;;46.78;31.40;;;22.10;99.90;;;22.47;87.25;101243.28;4823971;29;20185;-69
2022/08/19 06:16:31;;;;;;;48.85;32.47;;;22.10;99.90;;;22.39;87.44;101223.91;4824190;29;20107;-72
2022/08/19 06:19:02;;;;;;;49.53;32.45;;;22.10;99.90;;;22.45;87.45;101247.88;4824292;29;20050;-72
2022/08/19 06:21:31;;;;;;;46.85;31.85;;;22.00;99.90;;;22.52;88.03;101248.44;4823979;29;20072;-72
2022/08/19 06:24:00;;;;;;;50.92;31.55;;;22.10;99.90;;;22.53;88.03;101252.91;4824302;29;20046;-72
2022/08/19 06:26:29;;;;;;;49.40;31.52;;;22.10;99.90;;;22.60;87.75;101246.28;4824493;29;20085;-70
2022/08/19 06:28:58;;;;;;;45.70;31.33;;;22.10;99.90;;;22.67;87.59;101255.84;4823839;29;20056;-70
2022/08/19 06:31:31;;;;;;;48.22;29.63;;;22.20;99.90;;;22.69;87.54;101253.94;4824210;29;20130;-70
2022/08/19 06:33:59;;;;;;;45.10;29.98;;;22.20;99.90;;;22.72;87.68;101249.28;4823944;29;20125;-70
2022/08/19 06:36:39;;;;;;;45.88;31.15;;;22.30;99.90;;;22.83;87.71;101246.94;4823827;29;20097;-69
2022/08/19 06:39:12;;;;;;;44.28;29.20;;;22.40;99.90;;;22.85;87.44;101255.84;4823979;29;20086;-70
2022/08/19 06:41:45;;;;;;;46.22;30.02;;;22.40;99.90;;;22.93;87.29;101252.75;4822642;29;20110;-70
2022/08/19 06:44:21;;;;;;;47.13;29.92;;;22.50;99.90;;;22.93;87.08;101258.16;4824174;29;20410;-70
2022/08/19 06:46:54;;;;;;;40.10;29.20;;;22.50;99.90;;;22.95;86.77;101258.97;4824157;29;20114;-70
2022/08/19 06:49:24;;;;;;;49.42;30.98;;;22.50;99.90;;;22.96;86.85;101258.88;4822630;29;20087;-69
2022/08/19 06:51:53;;;;;;;;;;;22.50;99.90;;;22.92;86.10;101253.69;4823633;29;20099;-70
2022/08/19 06:54:22;;;;;;;41.35;28.70;;;22.50;99.90;;;22.98;86.13;101253.41;4823442;29;19956;-69
2022/08/19 06:57:02;;;;;;;44.25;28.50;;;22.50;99.90;;;23.02;85.90;101246.91;4823771;29;20050;-70
2022/08/19 06:59:32;;;;;;;44.92;29.70;;;22.60;99.90;;;23.07;85.87;101258.34;4823635;29;20075;-69
2022/08/19 07:02:06;;;;;;;44.40;28.65;;;22.60;99.90;;;23.04;85.71;101251.28;4823876;29;20050;-70
2022/08/19 07:04:38;;;;;;;45.60;28.25;;;22.70;99.90;;;23.13;85.87;101260.75;4823923;29;20061;-70
2022/08/19 07:07:12;;;;;;;36.72;27.38;;;22.70;99.90;;;23.19;85.80;101252.31;4823616;29;20050;-68
2022/08/19 07:09:48;;;;;;;42.47;27.58;;;22.80;99.90;;;23.31;85.75;101259.84;4823821;29;20236;-66
2022/08/19 07:12:29;;;;;;;;;;;22.90;99.90;;;23.36;85.01;101265.91;4824269;29;20054;-68
2022/08/19 07:14:58;;;;;;;34.08;25.08;;;23.00;99.90;;;23.44;84.83;101268.22;4823575;29;19966;-67
2022/08/19 07:17:29;;;;;;;38.83;26.10;;;23.10;99.90;;;23.51;84.48;101273.22;4822448;29;20062;-67
2022/08/19 07:19:59;;;;;;;43.57;25.63;;;23.10;99.90;;;23.48;84.23;101259.84;4823414;29;20118;-66
2022/08/19 07:22:34;;;;;;;38.80;24.25;;;23.20;99.90;;;23.56;84.41;101281.06;4823661;29;20344;-66
2022/08/19 07:25:04;;;;;;;35.13;23.50;;;23.20;99.90;;;23.62;84.05;101276.22;4823892;29;20042;-67
2022/08/19 07:27:33;;;;;;;34.20;22.25;;;23.20;99.90;;;23.72;84.12;101291.03;4823762;29;20107;-67
2022/08/19 07:30:02;;;;;;;32.90;23.27;;;23.30;99.90;;;23.76;84.21;101284.50;4823543;29;20077;-67
2022/08/19 07:32:32;;;;;;;35.10;22.80;;;23.30;99.90;;;23.76;83.95;101284.50;4823237;29;20046;-68
2022/08/19 07:35:03;;;;;;;36.38;22.33;;;23.40;99.90;;;23.76;83.95;101289.91;4822360;29;20099;-67
2022/08/19 07:37:31;;;;;;;38.03;21.95;;;23.40;99.90;;;23.77;83.85;101288.09;4823602;29;20043;-67
2022/08/19 07:40:00;;;;;;;31.48;20.33;;;23.30;99.90;;;23.81;83.97;101286.97;4823963;29;20114;-67
2022/08/19 07:42:30;;;;;;;85.38;24.35;;;23.40;99.90;;;23.82;83.72;101288.72;4823801;29;20050;-66
2022/08/19 07:44:59;;;;;;;31.13;20.58;;;23.40;99.90;;;23.91;83.77;101289.09;4822124;29;20382;-66
2022/08/19 07:47:28;;;;;;;61.45;21.42;;;23.50;99.90;;;24.03;83.77;101284.91;4823138;29;20126;-65
2022/08/19 07:50:20;;;;;;;27.17;17.88;;;23.60;99.90;;;24.10;83.47;101279.09;4822011;29;20557;-63
2022/08/19 07:52:50;;;;;;;30.83;17.75;;;23.60;99.90;;;24.13;83.07;101281.63;4823069;29;20043;-63
2022/08/19 07:55:23;;;;;;;32.05;17.67;;;23.70;99.90;;;24.15;82.92;101279.72;4823299;29;20058;-63
2022/08/19 07:58:11;;;;;;;31.40;18.13;;;23.70;99.90;;;24.19;82.48;101277.72;4823116;29;20050;-63
2022/08/19 08:00:39;;;;;;;31.03;16.83;;;23.80;99.90;;;24.30;82.30;101288.81;4823280;29;20423;-62
2022/08/19 08:03:08;;;;;;;25.50;16.23;;;23.80;99.90;;;24.24;82.05;101262.13;4825691;29;20082;-60
2022/08/19 08:11:17;;;;;;;25.85;15.57;;;24.10;99.90;;;24.51;81.43;101279.53;4826096;29;20450;-60
2022/08/19 08:13:49;;;;;;;24.80;14.77;;;24.20;99.90;;;24.66;81.41;101303.03;4826326;29;20137;-61
2022/08/19 08:16:35;;;;;;;21.83;13.45;;;24.20;99.90;;;24.67;80.93;101302.09;4825967;29;20130;-59
2022/08/19 08:19:15;;;;;;;21.50;13.77;;;24.30;99.90;;;24.74;80.98;101300.81;4826055;29;20053;-60
2022/08/19 08:21:55;;;;;;;20.98;13.38;;;24.30;99.90;;;24.90;79.78;101303.53;4826043;29;20481;-60
2022/08/19 08:24:24;;;;;;;26.67;12.63;;;24.40;99.90;;;24.95;78.16;101301.44;4824660;29;20065;-64
2022/08/19 08:26:57;;;;;;;21.13;11.38;;;24.50;99.90;;;25.10;77.36;101305.97;4824703;29;20424;-65
2022/08/19 08:29:28;;;;;;;316.50;77.60;;;24.70;99.90;;;25.13;75.81;101300.38;4826195;29;20050;-70
2022/08/19 08:32:03;;;;;;;28.70;13.35;;;24.70;99.90;;;25.33;75.05;101315.47;4826096;29;20065;-62
2022/08/19 08:34:42;;;;;;;16.55;10.35;;;24.90;99.90;;;25.46;74.57;101320.13;4825847;29;20050;-63
2022/08/19 08:37:12;;;;;;;16.52;10.45;;;25.00;99.90;;;25.64;74.40;101313.63;4825694;29;20564;-67
2022/08/19 08:39:43;;;;;;;20.38;10.73;;;25.20;99.90;;;25.88;73.67;101322.97;4825417;29;20065;-63
2022/08/19 08:42:18;;;;;;;14.82;9.80;;;25.50;99.90;;;25.92;72.33;101308.25;4825495;29;20133;-65
2022/08/19 08:44:59;;;;;;;16.63;9.50;;;25.60;99.90;;;26.31;72.09;101318.53;4825651;29;20122;-62
2022/08/19 08:47:39;;;;;;;15.90;9.40;;;25.90;99.90;;;26.55;70.31;101319.72;4825568;29;20108;-63
2022/08/19 08:50:15;;;;;;;16.30;9.32;;;26.10;99.90;;;26.70;68.95;101326.91;4824491;29;20054;-63
2022/08/19 08:52:49;;;;;;;15.57;9.32;;;26.30;99.90;;;26.70;68.36;101321.47;4825811;29;20070;-63
2022/08/19 08:55:22;;;;;;;16.08;9.10;;;26.30;99.90;;;26.67;68.07;101328.91;4825634;29;20058;-63
2022/08/19 08:57:58;;;;;;;15.50;8.55;;;26.30;99.90;;;26.60;67.18;101330.25;4825297;29;20505;-63
2022/08/19 09:00:31;;;;;;;14.07;7.88;;;26.20;99.90;;;26.70;67.68;101323.31;4825241;29;20122;-61
2022/08/19 09:03:01;;;;;;;16.75;8.48;;;26.30;99.90;;;26.86;67.49;101329.53;4825276;29;20043;-62
2022/08/19 09:05:40;;;;;;;13.90;7.53;;;26.40;99.90;;;26.87;66.94;101339.38;4825687;29;20149;-62
2022/08/19 09:08:28;;;;;;;13.80;7.80;;;26.50;99.90;;;26.79;66.03;101337.16;4825839;29;20133;-63
2022/08/19 09:10:58;;;;;;;12.50;6.60;;;26.40;99.90;;;26.76;66.06;101340.09;4825470;29;20046;-62
2022/08/19 09:13:34;;;;;;;10.32;7.50;;;26.30;99.90;;;26.64;66.45;101331.81;4824604;29;20367;-62
2022/08/19 09:16:11;;;;;;;12.23;7.57;;;26.30;99.90;;;26.56;66.04;101334.13;4825481;29;20054;-62
2022/08/19 09:18:43;;;;;;;14.35;7.25;;;26.10;99.90;;;26.10;66.29;101245.75;4825455;29;20050;-62
2022/08/19 09:21:11;;;;;;;14.40;6.78;;;26.10;99.90;;;26.49;66.11;101335.50;4825454;29;20454;-63
2022/08/19 09:23:43;;;;;;;10.60;7.35;;;26.00;99.90;;;26.50;66.64;101331.84;4824061;29;20141;-62
2022/08/19 09:26:14;;;;;;;9.55;6.20;;;26.00;99.90;;;25.86;66.25;101251.69;4825029;29;20137;-61
2022/08/19 09:28:46;;;;;;;13.70;7.28;;;26.00;99.90;;;26.32;66.61;101350.13;4825268;29;20054;-62
2022/08/19 09:31:19;;;;;;;10.32;6.40;;;25.90;99.90;;;26.23;67.25;101347.97;4824882;29;20042;-61
2022/08/19 09:33:49;;;;;;;9.30;5.97;;;25.80;99.90;;;26.20;68.03;101342.75;4824809;29;20358;-64
2022/08/19 09:36:23;;;;;;;10.35;6.60;;;25.70;99.90;;;26.14;68.00;101336.81;4824962;29;20054;-64
2022/08/19 09:39:05;;;;;;;14.25;6.35;;;25.70;99.90;;;25.66;68.07;101265.63;4825055;29;20414;-66
2022/08/19 09:41:43;;;;;;;15.52;6.35;;;25.70;99.90;;;26.14;68.14;101350.38;4824993;29;20133;-64
2022/08/19 09:44:14;;;;;;;16.42;6.32;;;25.70;99.90;;;26.10;68.17;101352.41;4825334;29;20054;-64
2022/08/19 09:46:43;;;;;;;8.50;6.10;;;25.70;99.90;;;26.16;67.93;101348.44;4825261;29;20488;-63
2022/08/19 09:49:11;;;;;;;13.57;6.53;;;25.70;99.90;;;26.31;67.93;101350.22;4824843;29;20130;-63
2022/08/19 09:51:40;;;;;;;8.60;5.53;;;25.90;99.90;;;26.53;68.11;101354.22;4824555;29;20129;-63
2022/08/19 09:54:10;;;;;;;9.05;5.22;;;26.10;99.90;;;26.75;67.93;101354.63;4824506;29;20058;-61
2022/08/19 09:56:38;;;;;;;6.90;4.85;;;26.40;99.90;;;26.81;64.42;101353.34;4824449;29;20058;-62
2022/08/19 09:59:10;;;;;;;5.45;4.47;;;26.50;99.90;;;26.97;63.45;101348.69;4823653;29;20069;-61
2022/08/19 10:01:38;;;;;;;5.18;4.00;;;26.60;99.90;;;27.17;64.16;101350.13;4824351;29;20043;-61
2022/08/19 10:04:08;;;;;;;7.32;3.80;;;26.70;99.90;;;27.15;64.04;101349.34;4824708;29;20066;-63
2022/08/19 10:06:49;;;;;;;5.38;4.10;;;26.80;99.90;;;26.98;63.02;101342.31;4824654;29;20061;-62
2022/08/19 10:09:22;;;;;;;8.27;5.20;;;26.70;99.90;;;27.06;63.26;101363.53;4824679;29;20050;-65
2022/08/19 10:12:01;;;;;;;8.25;4.60;;;26.70;99.90;;;27.02;62.89;101364.72;4824899;29;20047;-63
2022/08/19 10:14:30;;;;;;;7.45;3.97;;;26.60;99.90;;;27.02;63.64;101357.44;4823165;29;20465;-64
2022/08/19 10:17:00;;;;;;;7.15;4.13;;;26.60;99.90;;;27.14;64.36;101361.19;4824252;29;20062;-65
2022/08/19 10:19:40;;;;;;;5.57;3.80;;;26.70;99.90;;;27.07;63.67;101358.00;4824099;29;20501;-63
2022/08/19 10:22:23;;;;;;;5.68;3.63;;;26.70;99.90;;;26.88;63.89;101348.41;4824182;29;20038;-63
2022/08/19 10:24:54;;;;;;;7.40;4.38;;;26.60;99.90;;;26.89;63.89;101356.47;4823581;29;20050;-63
2022/08/19 10:27:23;;;;;;;4.82;3.17;;;26.40;99.90;;;26.84;64.35;101355.00;4823823;29;20150;-63
2022/08/19 10:29:53;;;;;;;5.53;3.30;;;26.40;99.90;;;26.75;64.85;101360.06;4824384;29;20057;-62
2022/08/19 10:32:23;;;;;;;7.25;3.47;;;26.40;99.90;;;26.74;64.31;101352.00;4823991;29;20408;-62
2022/08/19 10:35:01;;;;;;;3.90;3.20;;;26.30;99.90;;;26.72;64.39;101348.53;4824046;29;20050;-62
2022/08/19 10:37:33;;;;;;;10.07;4.20;;;26.30;99.90;;;26.61;65.45;101356.44;4824031;29;20051;-63